Guyang, China
Current Conditions -  °F | °C
As of 7:00 PM on Monday 20 Oct 2014 (Local Time) from ZBHH Reporting Station
Smoke Smoke  
Wind Chill: 54°   Ceiling: Unl
Heat Index: 54°   Visibility: 2.8mi
Dew Point: 32°   Wind: 4mph
Humidity: 44%   Direction: 80°E
Pressure: 30.09"   Gusts: NA
Location:  41.03°N, 110.05°E
Report Text: ZBHH 201100Z 08002MPS 4500 FU NSC 12/00 Q1019 NOSIG
Loading
Personal Weather Stations






























Interactive Weather Map
Tropical Storm Tracking
New forecast layout! Learn more

10-Day Weather Forecast

Advertisements
Track Severe Weather on mobile